sensor_id;sensor_type;location;lat;lon;timestamp;P1;durP1;ratioP1;P2;durP2;ratioP2
59169;SDS011;52474;52.236;5.114;2023-02-28T00:00:31;2.92;;;2.08;;
59169;SDS011;52474;52.236;5.114;2023-02-28T00:02:57;4.35;;;2.42;;
59169;SDS011;52474;52.236;5.114;2023-02-28T00:05:23;4.10;;;1.92;;
59169;SDS011;52474;52.236;5.114;2023-02-28T00:07:50;2.25;;;1.63;;
59169;SDS011;52474;52.236;5.114;2023-02-28T00:10:18;4.57;;;2.00;;
59169;SDS011;52474;52.236;5.114;2023-02-28T00:12:50;5.90;;;2.15;;
59169;SDS011;52474;52.236;5.114;2023-02-28T00:15:17;6.85;;;1.65;;
59169;SDS011;52474;52.236;5.114;2023-02-28T00:17:43;4.22;;;1.70;;
59169;SDS011;52474;52.236;5.114;2023-02-28T00:20:09;3.88;;;1.63;;
59169;SDS011;52474;52.236;5.114;2023-02-28T00:22:41;3.00;;;1.40;;
59169;SDS011;52474;52.236;5.114;2023-02-28T00:25:09;6.47;;;1.90;;
59169;SDS011;52474;52.236;5.114;2023-02-28T00:27:36;2.28;;;1.45;;
59169;SDS011;52474;52.236;5.114;2023-02-28T00:30:06;4.68;;;1.67;;
59169;SDS011;52474;52.236;5.114;2023-02-28T00:32:36;3.92;;;1.65;;
59169;SDS011;52474;52.236;5.114;2023-02-28T00:35:03;2.92;;;1.60;;
59169;SDS011;52474;52.236;5.114;2023-02-28T00:37:29;6.03;;;1.55;;
59169;SDS011;52474;52.236;5.114;2023-02-28T00:39:55;4.68;;;1.70;;
59169;SDS011;52474;52.236;5.114;2023-02-28T00:42:21;5.28;;;1.80;;
59169;SDS011;52474;52.236;5.114;2023-02-28T00:44:47;4.72;;;1.42;;
59169;SDS011;52474;52.236;5.114;2023-02-28T00:47:13;3.38;;;1.70;;
59169;SDS011;52474;52.236;5.114;2023-02-28T00:49:38;4.70;;;1.80;;
59169;SDS011;52474;52.236;5.114;2023-02-28T00:52:04;3.88;;;1.70;;
59169;SDS011;52474;52.236;5.114;2023-02-28T00:54:30;3.05;;;1.60;;
59169;SDS011;52474;52.236;5.114;2023-02-28T00:56:55;6.07;;;1.98;;
59169;SDS011;52474;52.236;5.114;2023-02-28T00:59:21;3.08;;;1.70;;
59169;SDS011;52474;52.236;5.114;2023-02-28T01:01:47;3.28;;;1.65;;
59169;SDS011;52474;52.236;5.114;2023-02-28T01:04:13;3.72;;;1.88;;
59169;SDS011;52474;52.236;5.114;2023-02-28T01:06:39;2.20;;;1.70;;
59169;SDS011;52474;52.236;5.114;2023-02-28T01:09:05;4.63;;;1.75;;
59169;SDS011;52474;52.236;5.114;2023-02-28T01:11:32;2.92;;;1.70;;
59169;SDS011;52474;52.236;5.114;2023-02-28T01:13:59;2.60;;;1.50;;
59169;SDS011;52474;52.236;5.114;2023-02-28T01:16:25;4.25;;;1.85;;
59169;SDS011;52474;52.236;5.114;2023-02-28T01:18:52;3.65;;;2.05;;
59169;SDS011;52474;52.236;5.114;2023-02-28T01:21:18;4.13;;;1.63;;
59169;SDS011;52474;52.236;5.114;2023-02-28T01:23:45;4.93;;;1.80;;
59169;SDS011;52474;52.236;5.114;2023-02-28T01:26:13;4.93;;;1.70;;
59169;SDS011;52474;52.236;5.114;2023-02-28T01:28:46;4.55;;;1.80;;
59169;SDS011;52474;52.236;5.114;2023-02-28T01:31:12;4.43;;;1.80;;
59169;SDS011;52474;52.236;5.114;2023-02-28T01:33:38;5.55;;;1.60;;
59169;SDS011;52474;52.236;5.114;2023-02-28T01:36:06;3.00;;;1.60;;
59169;SDS011;52474;52.236;5.114;2023-02-28T01:38:35;5.05;;;2.20;;
59169;SDS011;52474;52.236;5.114;2023-02-28T01:41:00;3.13;;;1.70;;
59169;SDS011;52474;52.236;5.114;2023-02-28T01:43:30;4.13;;;1.90;;
59169;SDS011;52474;52.236;5.114;2023-02-28T01:46:17;2.63;;;1.58;;
59169;SDS011;52474;52.236;5.114;2023-02-28T01:48:46;3.17;;;1.67;;
59169;SDS011;52474;52.236;5.114;2023-02-28T01:51:18;5.13;;;1.88;;
59169;SDS011;52474;52.236;5.114;2023-02-28T01:53:49;2.50;;;1.70;;
59169;SDS011;52474;52.236;5.114;2023-02-28T01:56:20;3.95;;;1.80;;
59169;SDS011;52474;52.236;5.114;2023-02-28T01:58:51;2.50;;;1.50;;
59169;SDS011;52474;52.236;5.114;2023-02-28T02:01:18;4.78;;;2.03;;
59169;SDS011;52474;52.236;5.114;2023-02-28T02:03:59;2.88;;;1.48;;
59169;SDS011;52474;52.236;5.114;2023-02-28T02:06:29;3.05;;;1.70;;
59169;SDS011;52474;52.236;5.114;2023-02-28T02:08:59;4.47;;;2.17;;
59169;SDS011;52474;52.236;5.114;2023-02-28T02:11:25;9.35;;;2.00;;
59169;SDS011;52474;52.236;5.114;2023-02-28T02:14:01;2.35;;;1.90;;
59169;SDS011;52474;52.236;5.114;2023-02-28T02:25:19;3.47;;;1.88;;
59169;SDS011;52474;52.236;5.114;2023-02-28T02:39:14;3.60;;;1.67;;
59169;SDS011;52474;52.236;5.114;2023-02-28T02:41:50;6.05;;;2.38;;
59169;SDS011;52474;52.236;5.114;2023-02-28T02:46:50;5.38;;;2.13;;
59169;SDS011;52474;52.236;5.114;2023-02-28T02:49:33;3.10;;;2.00;;
59169;SDS011;52474;52.236;5.114;2023-02-28T02:52:03;4.95;;;1.90;;
59169;SDS011;52474;52.236;5.114;2023-02-28T02:54:37;2.85;;;2.00;;
59169;SDS011;52474;52.236;5.114;2023-02-28T02:57:14;5.53;;;2.20;;
59169;SDS011;52474;52.236;5.114;2023-02-28T02:59:45;9.65;;;2.78;;
59169;SDS011;52474;52.236;5.114;2023-02-28T03:02:12;4.13;;;2.17;;
59169;SDS011;52474;52.236;5.114;2023-02-28T03:04:43;4.50;;;2.03;;
59169;SDS011;52474;52.236;5.114;2023-02-28T03:07:16;5.60;;;2.28;;
59169;SDS011;52474;52.236;5.114;2023-02-28T03:09:50;4.68;;;2.38;;
59169;SDS011;52474;52.236;5.114;2023-02-28T03:12:18;7.18;;;2.20;;
59169;SDS011;52474;52.236;5.114;2023-02-28T03:25:27;5.72;;;2.47;;
59169;SDS011;52474;52.236;5.114;2023-02-28T03:30:24;3.30;;;2.40;;
59169;SDS011;52474;52.236;5.114;2023-02-28T03:33:06;4.32;;;2.33;;
59169;SDS011;52474;52.236;5.114;2023-02-28T03:36:08;3.85;;;2.38;;
59169;SDS011;52474;52.236;5.114;2023-02-28T03:38:44;7.13;;;2.40;;
59169;SDS011;52474;52.236;5.114;2023-02-28T03:41:25;4.80;;;2.33;;
59169;SDS011;52474;52.236;5.114;2023-02-28T03:44:05;6.88;;;2.88;;
59169;SDS011;52474;52.236;5.114;2023-02-28T03:46:42;4.95;;;2.70;;
59169;SDS011;52474;52.236;5.114;2023-02-28T03:49:16;7.30;;;2.65;;
59169;SDS011;52474;52.236;5.114;2023-02-28T03:51:50;7.25;;;2.63;;
59169;SDS011;52474;52.236;5.114;2023-02-28T03:54:18;6.10;;;2.45;;
59169;SDS011;52474;52.236;5.114;2023-02-28T03:57:00;6.90;;;2.72;;
59169;SDS011;52474;52.236;5.114;2023-02-28T04:02:02;7.47;;;2.78;;
59169;SDS011;52474;52.236;5.114;2023-02-28T04:04:28;6.25;;;2.53;;
59169;SDS011;52474;52.236;5.114;2023-02-28T04:07:00;5.43;;;2.40;;
59169;SDS011;52474;52.236;5.114;2023-02-28T04:09:27;6.95;;;2.63;;
59169;SDS011;52474;52.236;5.114;2023-02-28T04:11:53;5.10;;;2.85;;
59169;SDS011;52474;52.236;5.114;2023-02-28T04:14:21;5.75;;;2.75;;
59169;SDS011;52474;52.236;5.114;2023-02-28T04:16:47;6.65;;;2.28;;
59169;SDS011;52474;52.236;5.114;2023-02-28T04:19:13;6.28;;;3.50;;
59169;SDS011;52474;52.236;5.114;2023-02-28T04:21:41;6.20;;;2.80;;
59169;SDS011;52474;52.236;5.114;2023-02-28T04:24:09;4.65;;;2.95;;
59169;SDS011;52474;52.236;5.114;2023-02-28T04:26:40;6.10;;;3.13;;
59169;SDS011;52474;52.236;5.114;2023-02-28T04:29:09;6.63;;;3.37;;
59169;SDS011;52474;52.236;5.114;2023-02-28T04:31:36;7.32;;;2.97;;
59169;SDS011;52474;52.236;5.114;2023-02-28T04:34:01;7.05;;;3.08;;
59169;SDS011;52474;52.236;5.114;2023-02-28T04:36:27;5.55;;;2.90;;
59169;SDS011;52474;52.236;5.114;2023-02-28T04:38:53;7.45;;;3.60;;
59169;SDS011;52474;52.236;5.114;2023-02-28T04:41:20;8.90;;;3.70;;
59169;SDS011;52474;52.236;5.114;2023-02-28T04:43:46;5.28;;;3.65;;
59169;SDS011;52474;52.236;5.114;2023-02-28T04:46:12;11.65;;;4.25;;
59169;SDS011;52474;52.236;5.114;2023-02-28T04:48:38;7.13;;;4.05;;
59169;SDS011;52474;52.236;5.114;2023-02-28T04:51:06;6.80;;;4.05;;
59169;SDS011;52474;52.236;5.114;2023-02-28T04:53:34;8.38;;;4.20;;
59169;SDS011;52474;52.236;5.114;2023-02-28T04:56:00;6.20;;;3.72;;
59169;SDS011;52474;52.236;5.114;2023-02-28T04:58:26;11.02;;;4.93;;
59169;SDS011;52474;52.236;5.114;2023-02-28T05:00:53;11.38;;;4.75;;
59169;SDS011;52474;52.236;5.114;2023-02-28T05:03:20;14.20;;;6.72;;
59169;SDS011;52474;52.236;5.114;2023-02-28T05:05:47;11.60;;;5.95;;
59169;SDS011;52474;52.236;5.114;2023-02-28T05:08:13;9.93;;;4.95;;
59169;SDS011;52474;52.236;5.114;2023-02-28T05:10:39;7.55;;;4.50;;
59169;SDS011;52474;52.236;5.114;2023-02-28T05:13:05;10.55;;;5.38;;
59169;SDS011;52474;52.236;5.114;2023-02-28T05:15:31;10.90;;;5.40;;
59169;SDS011;52474;52.236;5.114;2023-02-28T05:17:56;12.93;;;6.70;;
59169;SDS011;52474;52.236;5.114;2023-02-28T05:20:22;11.27;;;5.40;;
59169;SDS011;52474;52.236;5.114;2023-02-28T05:22:49;10.93;;;6.20;;
59169;SDS011;52474;52.236;5.114;2023-02-28T05:25:19;10.80;;;6.38;;
59169;SDS011;52474;52.236;5.114;2023-02-28T05:27:47;15.10;;;6.38;;
59169;SDS011;52474;52.236;5.114;2023-02-28T05:30:13;13.05;;;6.05;;
59169;SDS011;52474;52.236;5.114;2023-02-28T05:32:39;9.27;;;5.00;;
59169;SDS011;52474;52.236;5.114;2023-02-28T05:35:09;8.95;;;5.28;;
59169;SDS011;52474;52.236;5.114;2023-02-28T05:37:36;7.60;;;4.50;;
59169;SDS011;52474;52.236;5.114;2023-02-28T05:40:03;10.70;;;4.97;;
59169;SDS011;52474;52.236;5.114;2023-02-28T05:42:35;5.82;;;3.63;;
59169;SDS011;52474;52.236;5.114;2023-02-28T05:45:01;5.70;;;3.40;;
59169;SDS011;52474;52.236;5.114;2023-02-28T05:47:27;6.43;;;3.67;;
59169;SDS011;52474;52.236;5.114;2023-02-28T05:49:53;6.57;;;3.75;;
59169;SDS011;52474;52.236;5.114;2023-02-28T05:52:19;9.50;;;3.70;;
59169;SDS011;52474;52.236;5.114;2023-02-28T05:54:45;5.47;;;3.30;;
59169;SDS011;52474;52.236;5.114;2023-02-28T05:57:11;6.95;;;3.13;;
59169;SDS011;52474;52.236;5.114;2023-02-28T05:59:37;6.47;;;3.50;;
59169;SDS011;52474;52.236;5.114;2023-02-28T06:02:05;7.70;;;3.20;;
59169;SDS011;52474;52.236;5.114;2023-02-28T06:04:36;6.05;;;2.90;;
59169;SDS011;52474;52.236;5.114;2023-02-28T06:07:01;5.40;;;2.97;;
59169;SDS011;52474;52.236;5.114;2023-02-28T06:09:27;5.90;;;3.22;;
59169;SDS011;52474;52.236;5.114;2023-02-28T06:11:53;5.10;;;2.90;;
59169;SDS011;52474;52.236;5.114;2023-02-28T06:14:19;7.90;;;3.58;;
59169;SDS011;52474;52.236;5.114;2023-02-28T06:16:45;4.90;;;3.17;;
59169;SDS011;52474;52.236;5.114;2023-02-28T06:19:12;5.88;;;3.30;;
59169;SDS011;52474;52.236;5.114;2023-02-28T06:21:38;4.40;;;3.03;;
59169;SDS011;52474;52.236;5.114;2023-02-28T06:24:04;6.35;;;3.08;;
59169;SDS011;52474;52.236;5.114;2023-02-28T06:26:30;6.05;;;3.03;;
59169;SDS011;52474;52.236;5.114;2023-02-28T06:28:56;5.38;;;3.53;;
59169;SDS011;52474;52.236;5.114;2023-02-28T06:31:22;4.10;;;2.95;;
59169;SDS011;52474;52.236;5.114;2023-02-28T06:33:49;6.13;;;3.25;;
59169;SDS011;52474;52.236;5.114;2023-02-28T06:36:16;5.28;;;3.63;;
59169;SDS011;52474;52.236;5.114;2023-02-28T06:38:42;7.50;;;3.55;;
59169;SDS011;52474;52.236;5.114;2023-02-28T06:41:09;6.65;;;3.50;;
59169;SDS011;52474;52.236;5.114;2023-02-28T06:43:35;7.40;;;3.63;;
59169;SDS011;52474;52.236;5.114;2023-02-28T06:46:06;6.50;;;3.75;;
59169;SDS011;52474;52.236;5.114;2023-02-28T06:48:34;5.37;;;3.60;;
59169;SDS011;52474;52.236;5.114;2023-02-28T06:51:04;6.45;;;3.65;;
59169;SDS011;52474;52.236;5.114;2023-02-28T06:53:32;6.72;;;4.22;;
59169;SDS011;52474;52.236;5.114;2023-02-28T06:55:58;6.53;;;3.92;;
59169;SDS011;52474;52.236;5.114;2023-02-28T06:58:24;9.32;;;4.30;;
59169;SDS011;52474;52.236;5.114;2023-02-28T07:00:51;6.93;;;4.28;;
59169;SDS011;52474;52.236;5.114;2023-02-28T07:03:18;7.15;;;4.30;;
59169;SDS011;52474;52.236;5.114;2023-02-28T07:05:44;6.25;;;3.88;;
59169;SDS011;52474;52.236;5.114;2023-02-28T07:08:10;6.90;;;3.90;;
59169;SDS011;52474;52.236;5.114;2023-02-28T07:10:37;7.80;;;4.80;;
59169;SDS011;52474;52.236;5.114;2023-02-28T07:13:03;6.25;;;4.30;;
59169;SDS011;52474;52.236;5.114;2023-02-28T07:15:29;6.20;;;4.03;;
59169;SDS011;52474;52.236;5.114;2023-02-28T07:17:57;7.95;;;4.78;;
59169;SDS011;52474;52.236;5.114;2023-02-28T07:20:23;7.22;;;4.78;;
59169;SDS011;52474;52.236;5.114;2023-02-28T07:22:49;7.38;;;4.90;;
59169;SDS011;52474;52.236;5.114;2023-02-28T07:25:22;6.97;;;4.80;;
59169;SDS011;52474;52.236;5.114;2023-02-28T07:27:48;7.57;;;4.03;;
59169;SDS011;52474;52.236;5.114;2023-02-28T07:30:14;9.88;;;5.00;;
59169;SDS011;52474;52.236;5.114;2023-02-28T07:32:40;10.60;;;4.72;;
59169;SDS011;52474;52.236;5.114;2023-02-28T07:35:06;9.65;;;4.97;;
59169;SDS011;52474;52.236;5.114;2023-02-28T07:37:32;7.22;;;4.40;;
59169;SDS011;52474;52.236;5.114;2023-02-28T07:40:08;9.30;;;4.87;;
59169;SDS011;52474;52.236;5.114;2023-02-28T07:42:39;8.38;;;4.85;;
59169;SDS011;52474;52.236;5.114;2023-02-28T07:45:08;9.10;;;4.68;;
59169;SDS011;52474;52.236;5.114;2023-02-28T07:47:40;7.80;;;4.80;;
59169;SDS011;52474;52.236;5.114;2023-02-28T07:50:08;9.77;;;4.50;;
59169;SDS011;52474;52.236;5.114;2023-02-28T07:52:36;6.78;;;4.38;;
59169;SDS011;52474;52.236;5.114;2023-02-28T07:55:02;8.20;;;5.25;;
59169;SDS011;52474;52.236;5.114;2023-02-28T07:57:29;7.18;;;4.57;;
59169;SDS011;52474;52.236;5.114;2023-02-28T07:59:55;10.07;;;5.10;;
59169;SDS011;52474;52.236;5.114;2023-02-28T08:02:21;7.85;;;4.63;;
59169;SDS011;52474;52.236;5.114;2023-02-28T08:04:46;8.27;;;4.88;;
59169;SDS011;52474;52.236;5.114;2023-02-28T08:07:13;7.40;;;5.18;;
59169;SDS011;52474;52.236;5.114;2023-02-28T08:09:39;7.80;;;4.47;;
59169;SDS011;52474;52.236;5.114;2023-02-28T08:12:06;8.95;;;5.13;;
59169;SDS011;52474;52.236;5.114;2023-02-28T08:14:33;8.80;;;4.88;;
59169;SDS011;52474;52.236;5.114;2023-02-28T08:16:59;8.00;;;5.07;;
59169;SDS011;52474;52.236;5.114;2023-02-28T08:19:25;10.00;;;5.45;;
59169;SDS011;52474;52.236;5.114;2023-02-28T08:21:50;7.78;;;4.72;;
59169;SDS011;52474;52.236;5.114;2023-02-28T08:24:16;6.68;;;4.85;;
59169;SDS011;52474;52.236;5.114;2023-02-28T08:26:42;8.75;;;4.95;;
59169;SDS011;52474;52.236;5.114;2023-02-28T08:29:09;8.35;;;5.10;;
59169;SDS011;52474;52.236;5.114;2023-02-28T08:31:35;8.18;;;5.18;;
59169;SDS011;52474;52.236;5.114;2023-02-28T08:34:11;7.05;;;4.60;;
59169;SDS011;52474;52.236;5.114;2023-02-28T08:36:39;7.72;;;5.38;;
59169;SDS011;52474;52.236;5.114;2023-02-28T08:39:06;10.93;;;5.93;;
59169;SDS011;52474;52.236;5.114;2023-02-28T08:41:32;9.02;;;5.40;;
59169;SDS011;52474;52.236;5.114;2023-02-28T08:43:58;8.05;;;5.70;;
59169;SDS011;52474;52.236;5.114;2023-02-28T08:46:25;11.75;;;6.30;;
59169;SDS011;52474;52.236;5.114;2023-02-28T08:48:52;7.82;;;5.00;;
59169;SDS011;52474;52.236;5.114;2023-02-28T08:51:19;7.72;;;5.30;;
59169;SDS011;52474;52.236;5.114;2023-02-28T08:54:00;9.52;;;5.15;;
59169;SDS011;52474;52.236;5.114;2023-02-28T08:56:27;8.55;;;4.95;;
59169;SDS011;52474;52.236;5.114;2023-02-28T08:58:54;7.10;;;4.93;;
59169;SDS011;52474;52.236;5.114;2023-02-28T09:01:22;8.77;;;5.50;;
59169;SDS011;52474;52.236;5.114;2023-02-28T09:03:50;10.98;;;5.22;;
59169;SDS011;52474;52.236;5.114;2023-02-28T09:06:17;7.65;;;4.50;;
59169;SDS011;52474;52.236;5.114;2023-02-28T09:08:44;9.18;;;6.00;;
59169;SDS011;52474;52.236;5.114;2023-02-28T09:11:10;8.38;;;5.03;;
59169;SDS011;52474;52.236;5.114;2023-02-28T09:13:37;6.88;;;5.13;;
59169;SDS011;52474;52.236;5.114;2023-02-28T09:16:05;8.43;;;4.85;;
59169;SDS011;52474;52.236;5.114;2023-02-28T09:18:36;6.65;;;4.45;;
59169;SDS011;52474;52.236;5.114;2023-02-28T09:21:06;7.38;;;4.85;;
59169;SDS011;52474;52.236;5.114;2023-02-28T09:23:33;8.48;;;4.97;;
59169;SDS011;52474;52.236;5.114;2023-02-28T09:25:59;7.90;;;5.00;;
59169;SDS011;52474;52.236;5.114;2023-02-28T09:28:25;7.25;;;5.20;;
59169;SDS011;52474;52.236;5.114;2023-02-28T09:30:53;8.43;;;4.53;;
59169;SDS011;52474;52.236;5.114;2023-02-28T09:33:22;8.65;;;4.30;;
59169;SDS011;52474;52.236;5.114;2023-02-28T09:35:49;8.52;;;3.97;;
59169;SDS011;52474;52.236;5.114;2023-02-28T09:38:16;6.80;;;4.07;;
59169;SDS011;52474;52.236;5.114;2023-02-28T09:40:49;5.80;;;4.00;;
59169;SDS011;52474;52.236;5.114;2023-02-28T09:43:17;4.97;;;3.38;;
59169;SDS011;52474;52.236;5.114;2023-02-28T09:45:52;5.70;;;3.17;;
59169;SDS011;52474;52.236;5.114;2023-02-28T09:48:25;6.55;;;3.45;;
59169;SDS011;52474;52.236;5.114;2023-02-28T09:50:59;4.50;;;3.00;;
59169;SDS011;52474;52.236;5.114;2023-02-28T09:53:32;4.25;;;3.17;;
59169;SDS011;52474;52.236;5.114;2023-02-28T09:56:37;4.15;;;3.17;;
59169;SDS011;52474;52.236;5.114;2023-02-28T10:01:44;4.68;;;3.10;;
59169;SDS011;52474;52.236;5.114;2023-02-28T10:04:54;4.43;;;3.03;;
59169;SDS011;52474;52.236;5.114;2023-02-28T10:07:23;4.40;;;3.20;;
59169;SDS011;52474;52.236;5.114;2023-02-28T10:10:23;6.38;;;2.60;;
59169;SDS011;52474;52.236;5.114;2023-02-28T10:13:04;3.28;;;2.50;;
59169;SDS011;52474;52.236;5.114;2023-02-28T10:15:56;3.72;;;2.80;;
59169;SDS011;52474;52.236;5.114;2023-02-28T10:21:28;3.20;;;2.30;;
59169;SDS011;52474;52.236;5.114;2023-02-28T10:24:02;6.00;;;3.38;;
59169;SDS011;52474;52.236;5.114;2023-02-28T10:26:48;3.33;;;2.67;;
59169;SDS011;52474;52.236;5.114;2023-02-28T10:29:21;4.55;;;2.63;;
59169;SDS011;52474;52.236;5.114;2023-02-28T10:31:49;5.22;;;3.33;;
59169;SDS011;52474;52.236;5.114;2023-02-28T10:34:15;4.00;;;2.60;;
59169;SDS011;52474;52.236;5.114;2023-02-28T10:36:43;7.13;;;3.00;;
59169;SDS011;52474;52.236;5.114;2023-02-28T10:42:18;4.57;;;2.97;;
59169;SDS011;52474;52.236;5.114;2023-02-28T10:44:46;5.28;;;2.45;;
59169;SDS011;52474;52.236;5.114;2023-02-28T10:47:14;3.55;;;2.90;;
59169;SDS011;52474;52.236;5.114;2023-02-28T10:49:49;3.45;;;2.60;;
59169;SDS011;52474;52.236;5.114;2023-02-28T10:52:34;3.88;;;2.50;;
59169;SDS011;52474;52.236;5.114;2023-02-28T10:55:18;3.47;;;2.80;;
59169;SDS011;52474;52.236;5.114;2023-02-28T10:57:47;3.35;;;2.85;;
59169;SDS011;52474;52.236;5.114;2023-02-28T11:00:19;3.70;;;2.63;;
59169;SDS011;52474;52.236;5.114;2023-02-28T11:02:48;5.07;;;2.40;;
59169;SDS011;52474;52.236;5.114;2023-02-28T11:10:31;3.97;;;2.60;;
59169;SDS011;52474;52.236;5.114;2023-02-28T11:13:00;4.32;;;2.40;;
59169;SDS011;52474;52.236;5.114;2023-02-28T11:15:30;4.75;;;2.30;;
59169;SDS011;52474;52.236;5.114;2023-02-28T11:18:19;2.83;;;2.13;;
59169;SDS011;52474;52.236;5.114;2023-02-28T11:20:52;3.00;;;2.45;;
59169;SDS011;52474;52.236;5.114;2023-02-28T11:23:21;2.40;;;2.20;;
59169;SDS011;52474;52.236;5.114;2023-02-28T11:25:53;2.88;;;1.90;;
59169;SDS011;52474;52.236;5.114;2023-02-28T11:28:29;1.90;;;1.58;;
59169;SDS011;52474;52.236;5.114;2023-02-28T11:33:42;2.10;;;1.90;;
59169;SDS011;52474;52.236;5.114;2023-02-28T11:36:24;1.80;;;1.70;;
59169;SDS011;52474;52.236;5.114;2023-02-28T11:38:56;2.13;;;1.55;;
59169;SDS011;52474;52.236;5.114;2023-02-28T11:41:34;2.92;;;1.70;;
59169;SDS011;52474;52.236;5.114;2023-02-28T11:55:30;1.63;;;1.52;;
59169;SDS011;52474;52.236;5.114;2023-02-28T12:06:09;3.97;;;2.10;;
59169;SDS011;52474;52.236;5.114;2023-02-28T12:08:53;3.30;;;1.70;;
59169;SDS011;52474;52.236;5.114;2023-02-28T12:13:58;2.08;;;1.70;;
59169;SDS011;52474;52.236;5.114;2023-02-28T12:16:41;2.80;;;1.67;;
59169;SDS011;52474;52.236;5.114;2023-02-28T12:19:22;2.85;;;1.70;;
59169;SDS011;52474;52.236;5.114;2023-02-28T12:22:10;2.15;;;1.80;;
59169;SDS011;52474;52.236;5.114;2023-02-28T12:27:33;2.47;;;1.80;;
59169;SDS011;52474;52.236;5.114;2023-02-28T12:30:13;2.10;;;1.90;;
59169;SDS011;52474;52.236;5.114;2023-02-28T12:33:02;4.35;;;1.70;;
59169;SDS011;52474;52.236;5.114;2023-02-28T12:38:37;3.25;;;1.92;;
59169;SDS011;52474;52.236;5.114;2023-02-28T12:41:13;1.90;;;1.70;;
59169;SDS011;52474;52.236;5.114;2023-02-28T12:43:45;2.47;;;1.55;;
59169;SDS011;52474;52.236;5.114;2023-02-28T12:46:17;1.70;;;1.60;;
59169;SDS011;52474;52.236;5.114;2023-02-28T12:48:50;2.47;;;1.50;;
59169;SDS011;52474;52.236;5.114;2023-02-28T12:51:21;2.88;;;1.80;;
59169;SDS011;52474;52.236;5.114;2023-02-28T12:56:59;1.90;;;1.80;;
59169;SDS011;52474;52.236;5.114;2023-02-28T12:59:54;2.53;;;1.88;;
59169;SDS011;52474;52.236;5.114;2023-02-28T13:10:18;2.85;;;1.85;;
59169;SDS011;52474;52.236;5.114;2023-02-28T13:12:51;6.18;;;1.83;;
59169;SDS011;52474;52.236;5.114;2023-02-28T13:15:27;2.10;;;1.90;;
59169;SDS011;52474;52.236;5.114;2023-02-28T13:17:58;2.85;;;2.20;;
59169;SDS011;52474;52.236;5.114;2023-02-28T13:20:35;3.83;;;1.80;;
59169;SDS011;52474;52.236;5.114;2023-02-28T13:26:05;2.28;;;1.73;;
59169;SDS011;52474;52.236;5.114;2023-02-28T13:34:34;2.22;;;1.70;;
59169;SDS011;52474;52.236;5.114;2023-02-28T13:39:58;1.92;;;1.40;;
59169;SDS011;52474;52.236;5.114;2023-02-28T13:47:42;2.03;;;1.60;;
59169;SDS011;52474;52.236;5.114;2023-02-28T13:53:19;1.85;;;1.50;;
59169;SDS011;52474;52.236;5.114;2023-02-28T13:59:04;2.60;;;1.70;;
59169;SDS011;52474;52.236;5.114;2023-02-28T14:01:53;1.90;;;1.70;;
59169;SDS011;52474;52.236;5.114;2023-02-28T14:04:53;2.45;;;1.60;;
59169;SDS011;52474;52.236;5.114;2023-02-28T14:07:25;2.40;;;1.42;;
59169;SDS011;52474;52.236;5.114;2023-02-28T14:09:59;2.28;;;1.58;;
59169;SDS011;52474;52.236;5.114;2023-02-28T14:18:22;2.53;;;1.70;;
59169;SDS011;52474;52.236;5.114;2023-02-28T14:21:28;4.07;;;2.60;;
59169;SDS011;52474;52.236;5.114;2023-02-28T14:24:01;2.45;;;2.00;;
59169;SDS011;52474;52.236;5.114;2023-02-28T14:26:33;2.78;;;2.13;;
59169;SDS011;52474;52.236;5.114;2023-02-28T14:31:58;3.25;;;2.40;;
59169;SDS011;52474;52.236;5.114;2023-02-28T14:37:43;3.00;;;2.08;;
59169;SDS011;52474;52.236;5.114;2023-02-28T14:40:16;2.28;;;1.77;;
59169;SDS011;52474;52.236;5.114;2023-02-28T14:42:59;4.18;;;1.77;;
59169;SDS011;52474;52.236;5.114;2023-02-28T14:45:30;3.25;;;1.60;;
59169;SDS011;52474;52.236;5.114;2023-02-28T14:47:58;1.95;;;1.63;;
59169;SDS011;52474;52.236;5.114;2023-02-28T14:50:27;2.72;;;1.70;;
59169;SDS011;52474;52.236;5.114;2023-02-28T14:53:02;2.95;;;1.80;;
59169;SDS011;52474;52.236;5.114;2023-02-28T14:55:32;2.92;;;1.98;;
59169;SDS011;52474;52.236;5.114;2023-02-28T14:58:03;2.08;;;1.88;;
59169;SDS011;52474;52.236;5.114;2023-02-28T15:00:33;3.97;;;2.17;;
59169;SDS011;52474;52.236;5.114;2023-02-28T15:05:47;3.03;;;1.70;;
59169;SDS011;52474;52.236;5.114;2023-02-28T15:08:18;4.63;;;2.22;;
59169;SDS011;52474;52.236;5.114;2023-02-28T15:10:55;3.38;;;1.90;;
59169;SDS011;52474;52.236;5.114;2023-02-28T15:13:30;1.70;;;1.60;;
59169;SDS011;52474;52.236;5.114;2023-02-28T15:16:07;2.78;;;2.17;;
59169;SDS011;52474;52.236;5.114;2023-02-28T15:18:41;3.03;;;2.65;;
59169;SDS011;52474;52.236;5.114;2023-02-28T15:23:56;4.63;;;3.08;;
59169;SDS011;52474;52.236;5.114;2023-02-28T15:26:58;5.63;;;3.42;;
59169;SDS011;52474;52.236;5.114;2023-02-28T15:29:28;4.82;;;3.05;;
59169;SDS011;52474;52.236;5.114;2023-02-28T15:32:01;3.97;;;3.30;;
59169;SDS011;52474;52.236;5.114;2023-02-28T15:36:59;4.95;;;2.95;;
59169;SDS011;52474;52.236;5.114;2023-02-28T15:39:25;6.70;;;3.55;;
59169;SDS011;52474;52.236;5.114;2023-02-28T15:42:09;5.93;;;4.18;;
59169;SDS011;52474;52.236;5.114;2023-02-28T15:44:43;5.57;;;3.08;;
59169;SDS011;52474;52.236;5.114;2023-02-28T15:47:14;4.05;;;3.30;;
59169;SDS011;52474;52.236;5.114;2023-02-28T15:49:45;4.53;;;3.20;;
59169;SDS011;52474;52.236;5.114;2023-02-28T15:52:19;3.97;;;3.05;;
59169;SDS011;52474;52.236;5.114;2023-02-28T15:54:59;5.65;;;3.00;;
59169;SDS011;52474;52.236;5.114;2023-02-28T15:57:34;3.72;;;2.72;;
59169;SDS011;52474;52.236;5.114;2023-02-28T16:00:01;3.75;;;2.33;;
59169;SDS011;52474;52.236;5.114;2023-02-28T16:02:37;2.95;;;2.38;;
59169;SDS011;52474;52.236;5.114;2023-02-28T16:07:39;2.97;;;2.08;;
59169;SDS011;52474;52.236;5.114;2023-02-28T16:10:09;3.63;;;2.40;;
59169;SDS011;52474;52.236;5.114;2023-02-28T16:12:37;6.22;;;2.78;;
59169;SDS011;52474;52.236;5.114;2023-02-28T16:15:08;4.95;;;2.65;;
59169;SDS011;52474;52.236;5.114;2023-02-28T16:17:43;3.25;;;2.70;;
59169;SDS011;52474;52.236;5.114;2023-02-28T16:20:16;3.42;;;2.60;;
59169;SDS011;52474;52.236;5.114;2023-02-28T16:22:45;2.80;;;2.33;;
59169;SDS011;52474;52.236;5.114;2023-02-28T16:25:15;4.50;;;2.10;;
59169;SDS011;52474;52.236;5.114;2023-02-28T16:27:50;3.40;;;1.95;;
59169;SDS011;52474;52.236;5.114;2023-02-28T16:30:23;3.03;;;2.58;;
59169;SDS011;52474;52.236;5.114;2023-02-28T16:32:51;4.10;;;2.38;;
59169;SDS011;52474;52.236;5.114;2023-02-28T16:35:19;9.13;;;4.43;;
59169;SDS011;52474;52.236;5.114;2023-02-28T16:37:46;8.63;;;4.22;;
59169;SDS011;52474;52.236;5.114;2023-02-28T16:40:22;9.27;;;3.75;;
59169;SDS011;52474;52.236;5.114;2023-02-28T16:42:51;2.95;;;2.65;;
59169;SDS011;52474;52.236;5.114;2023-02-28T16:45:23;3.75;;;2.50;;
59169;SDS011;52474;52.236;5.114;2023-02-28T16:47:50;3.17;;;2.88;;
59169;SDS011;52474;52.236;5.114;2023-02-28T16:50:18;3.78;;;3.10;;
59169;SDS011;52474;52.236;5.114;2023-02-28T16:52:44;5.53;;;4.05;;
59169;SDS011;52474;52.236;5.114;2023-02-28T16:55:10;5.18;;;4.20;;
59169;SDS011;52474;52.236;5.114;2023-02-28T16:57:37;6.60;;;4.20;;
59169;SDS011;52474;52.236;5.114;2023-02-28T17:00:04;4.97;;;3.78;;
59169;SDS011;52474;52.236;5.114;2023-02-28T17:02:36;8.05;;;5.10;;
59169;SDS011;52474;52.236;5.114;2023-02-28T17:05:02;7.10;;;5.45;;
59169;SDS011;52474;52.236;5.114;2023-02-28T17:07:28;13.57;;;6.60;;
59169;SDS011;52474;52.236;5.114;2023-02-28T17:09:54;11.07;;;6.47;;
59169;SDS011;52474;52.236;5.114;2023-02-28T17:12:20;5.00;;;4.07;;
59169;SDS011;52474;52.236;5.114;2023-02-28T17:14:45;5.80;;;4.05;;
59169;SDS011;52474;52.236;5.114;2023-02-28T17:17:15;7.57;;;4.38;;
59169;SDS011;52474;52.236;5.114;2023-02-28T17:19:43;5.60;;;3.97;;
59169;SDS011;52474;52.236;5.114;2023-02-28T17:22:10;7.07;;;3.88;;
59169;SDS011;52474;52.236;5.114;2023-02-28T17:24:36;4.22;;;3.47;;
59169;SDS011;52474;52.236;5.114;2023-02-28T17:27:03;8.65;;;4.75;;